Time;durP1;ratioP1;P1;durP2;ratioP2;P2;SDS_P1;SDS_P2;PMS_P1;PMS_P2;Temp;Humidity;BMP_temperature;BMP_pressure;BME280_temperature;BME280_humidity;BME280_pressure;Samples;Min_cycle;Max_cycle;Signal;HPM_P1;HPM_P2
2021/10/21 00:01:43;;;;;;;3.77;3.47;;;17.70;99.90;;;;;;5118500;28;20471;-70
2021/10/21 00:04:10;;;;;;;5.00;4.50;;;17.70;99.90;;;;;;5118458;28;20460;-70
2021/10/21 00:06:38;;;;;;;4.30;3.90;;;17.60;99.90;;;;;;5118287;28;20484;-70
2021/10/21 00:09:05;;;;;;;4.50;3.90;;;17.60;99.90;;;;;;5118001;28;20460;-70
2021/10/21 00:11:32;;;;;;;4.60;4.13;;;17.50;99.90;;;;;;5118151;28;20456;-70
2021/10/21 00:13:59;;;;;;;4.50;4.07;;;17.50;99.90;;;;;;5118200;28;20909;-70
2021/10/21 00:16:26;;;;;;;5.70;3.97;;;17.50;99.90;;;;;;5118300;27;20585;-70
2021/10/21 00:18:53;;;;;;;4.10;3.77;;;17.60;99.90;;;;;;5118429;28;20935;-70
2021/10/21 00:21:20;;;;;;;4.23;3.83;;;17.60;99.90;;;;;;5118156;28;20489;-71
2021/10/21 00:23:48;;;;;;;5.00;4.30;;;17.50;99.90;;;;;;5117758;27;20453;-70
2021/10/21 00:26:17;;;;;;;4.13;3.80;;;17.60;99.90;;;;;;5117840;28;20456;-69
2021/10/21 00:28:44;;;;;;;4.53;4.13;;;17.50;99.90;;;;;;5117828;28;20456;-69
2021/10/21 00:31:11;;;;;;;4.53;4.13;;;17.50;99.90;;;;;;5117359;28;20509;-69
2021/10/21 00:33:38;;;;;;;4.77;4.27;;;17.60;99.90;;;;;;5117755;28;20465;-70
2021/10/21 00:36:05;;;;;;;5.20;4.60;;;17.50;99.90;;;;;;5117793;28;20464;-69
2021/10/21 00:38:31;;;;;;;6.20;4.60;;;17.60;99.90;;;;;;5118187;28;20468;-69
2021/10/21 00:40:59;;;;;;;4.80;4.10;;;17.50;99.90;;;;;;5118455;28;20460;-69
2021/10/21 00:43:26;;;;;;;5.00;4.47;;;17.50;99.90;;;;;;5117948;28;20453;-69
2021/10/21 00:45:53;;;;;;;4.97;4.50;;;17.50;99.90;;;;;;5117312;28;20457;-70
2021/10/21 00:48:20;;;;;;;4.90;3.90;;;17.50;99.90;;;;;;5117648;27;20506;-70
2021/10/21 00:50:47;;;;;;;4.13;3.70;;;17.50;99.90;;;;;;5117507;28;20473;-69
2021/10/21 00:53:14;;;;;;;4.57;4.23;;;17.60;99.90;;;;;;5117601;28;20479;-69
2021/10/21 00:55:41;;;;;;;5.00;4.50;;;17.60;99.90;;;;;;5117366;28;20768;-69
2021/10/21 00:58:09;;;;;;;4.50;4.10;;;17.50;99.90;;;;;;5117362;28;20457;-69
2021/10/21 01:00:36;;;;;;;4.43;4.03;;;17.50;99.90;;;;;;5117308;28;20449;-69
2021/10/21 01:03:02;;;;;;;5.77;4.40;;;17.50;99.90;;;;;;5117323;28;20460;-69
2021/10/21 01:05:30;;;;;;;4.27;3.13;;;17.50;99.90;;;;;;5117450;27;20453;-69
2021/10/21 01:07:56;;;;;;;4.77;4.27;;;17.50;99.90;;;;;;5116987;28;20481;-69
2021/10/21 01:10:24;;;;;;;4.53;4.13;;;17.40;99.90;;;;;;5117318;27;20480;-70
2021/10/21 01:12:51;;;;;;;5.10;3.80;;;17.50;99.90;;;;;;5116829;28;20779;-69
2021/10/21 01:15:21;;;;;;;4.27;3.87;;;17.40;99.90;;;;;;5117275;28;20521;-70
2021/10/21 01:17:49;;;;;;;4.73;4.33;;;17.40;99.90;;;;;;5116819;28;20929;-69
2021/10/21 01:20:18;;;;;;;5.37;4.00;;;17.40;99.90;;;;;;5117008;28;20440;-69
2021/10/21 01:22:46;;;;;;;4.70;4.20;;;17.40;99.90;;;;;;5117089;28;20842;-70
2021/10/21 01:25:13;;;;;;;4.63;4.23;;;17.40;99.90;;;;;;5117163;28;20662;-69
2021/10/21 01:27:40;;;;;;;4.20;3.80;;;17.30;99.90;;;;;;5117052;28;20896;-69
2021/10/21 01:30:08;;;;;;;4.80;4.00;;;17.30;99.90;;;;;;5118256;28;20484;-69
2021/10/21 01:32:35;;;;;;;4.03;3.73;;;17.30;99.90;;;;;;5119715;28;20449;-69
2021/10/21 01:35:03;;;;;;;4.40;3.90;;;17.30;99.90;;;;;;5116893;28;20456;-69
2021/10/21 01:37:32;;;;;;;5.27;4.20;;;17.30;99.90;;;;;;5116466;28;20522;-70
2021/10/21 01:39:59;;;;;;;4.70;3.90;;;17.30;99.90;;;;;;5116563;28;20553;-70
2021/10/21 01:42:27;;;;;;;4.47;3.93;;;17.40;99.90;;;;;;5115492;28;20464;-70
2021/10/21 01:44:54;;;;;;;4.20;3.80;;;17.30;99.90;;;;;;5116604;28;20468;-70
2021/10/21 01:47:21;;;;;;;4.50;4.10;;;17.30;99.90;;;;;;5116276;28;20464;-70
2021/10/21 01:49:48;;;;;;;5.10;4.60;;;17.20;99.90;;;;;;5116535;28;20549;-68
2021/10/21 01:52:15;;;;;;;4.40;4.00;;;17.20;99.90;;;;;;5116433;28;20468;-70
2021/10/21 01:54:43;;;;;;;4.23;3.87;;;17.30;99.90;;;;;;5116026;28;20858;-70
2021/10/21 01:57:13;;;;;;;4.53;4.13;;;17.30;99.90;;;;;;5116664;28;20452;-70
2021/10/21 01:59:40;;;;;;;4.07;3.67;;;17.30;99.90;;;;;;5117070;28;20919;-70
2021/10/21 02:02:06;;;;;;;3.80;3.43;;;17.20;99.90;;;;;;5115906;28;20512;-70
2021/10/21 02:07:54;;;;;;;3.70;3.30;;;17.30;99.90;;;;;;5115436;28;20460;-70
2021/10/21 02:10:22;;;;;;;4.30;3.90;;;17.30;99.90;;;;;;5116558;28;20481;-71
2021/10/21 02:12:50;;;;;;;3.53;3.10;;;17.30;99.90;;;;;;5116524;28;20461;-69
2021/10/21 02:15:17;;;;;;;3.40;3.10;;;17.30;99.90;;;;;;5116411;28;20452;-70
2021/10/21 02:17:45;;;;;;;3.40;3.07;;;17.30;99.90;;;;;;5116046;28;20468;-69
2021/10/21 02:20:13;;;;;;;4.20;3.43;;;17.40;99.90;;;;;;5116061;28;20764;-69
2021/10/21 02:22:41;;;;;;;3.73;2.97;;;17.40;99.90;;;;;;5116653;28;20452;-69
2021/10/21 02:25:09;;;;;;;7.27;2.80;;;17.40;99.90;;;;;;5116194;28;20456;-69
2021/10/21 02:27:38;;;;;;;2.60;2.40;;;17.40;99.90;;;;;;5116081;28;20464;-69
2021/10/21 02:30:07;;;;;;;2.40;2.20;;;17.40;99.90;;;;;;5116538;28;20515;-69
2021/10/21 02:32:34;;;;;;;3.90;2.80;;;17.40;99.90;;;;;;5115497;28;20932;-69
2021/10/21 02:35:01;;;;;;;3.60;3.00;;;17.40;99.90;;;;;;5116137;28;20463;-69
2021/10/21 02:37:28;;;;;;;2.63;2.43;;;17.40;99.90;;;;;;5115907;28;20787;-69
2021/10/21 02:39:55;;;;;;;3.20;2.33;;;17.40;99.90;;;;;;5115611;28;20462;-69
2021/10/21 02:42:22;;;;;;;2.80;2.60;;;17.40;99.90;;;;;;5115502;28;20468;-69
2021/10/21 02:44:50;;;;;;;3.70;2.30;;;17.50;99.90;;;;;;5115567;28;20452;-69
2021/10/21 02:47:16;;;;;;;3.03;1.73;;;17.40;99.90;;;;;;5115316;28;20457;-70
2021/10/21 02:49:43;;;;;;;2.80;2.60;;;17.50;99.90;;;;;;5115326;28;20457;-69
2021/10/21 02:52:10;;;;;;;3.00;2.00;;;17.50;99.90;;;;;;5115149;28;20916;-69
2021/10/21 02:54:37;;;;;;;3.87;2.40;;;17.50;99.90;;;;;;5114894;28;20464;-69
2021/10/21 02:57:04;;;;;;;2.10;1.90;;;17.50;99.90;;;;;;5115272;28;20737;-69
2021/10/21 02:59:31;;;;;;;1.83;1.73;;;17.50;99.90;;;;;;5115341;28;20457;-69
2021/10/21 03:01:59;;;;;;;1.87;1.60;;;17.40;99.90;;;;;;5115080;28;20935;-69
2021/10/21 03:04:25;;;;;;;4.03;2.10;;;17.40;99.90;;;;;;5115216;28;20464;-69
2021/10/21 03:06:52;;;;;;;2.07;1.87;;;17.40;99.90;;;;;;5115134;28;20485;-69
2021/10/21 03:09:19;;;;;;;1.97;1.87;;;17.40;99.90;;;;;;5115083;28;20548;-69
2021/10/21 03:11:45;;;;;;;1.87;1.77;;;17.40;99.90;;;;;;5115258;28;20473;-70
2021/10/21 03:14:12;;;;;;;2.43;2.20;;;17.30;99.90;;;;;;5115108;28;20460;-69
2021/10/21 03:16:39;;;;;;;2.60;2.27;;;17.30;99.90;;;;;;5115250;28;20461;-69
2021/10/21 03:19:08;;;;;;;2.47;2.27;;;17.30;99.90;;;;;;5115153;28;20463;-69
2021/10/21 03:21:37;;;;;;;3.80;2.23;;;17.30;99.90;;;;;;5114463;28;20453;-69
2021/10/21 03:24:07;;;;;;;2.90;2.40;;;17.30;99.90;;;;;;5115262;28;20907;-69
2021/10/21 03:26:34;;;;;;;3.63;2.20;;;17.40;99.90;;;;;;5115147;28;20768;-69
2021/10/21 03:29:00;;;;;;;4.27;2.20;;;17.40;99.90;;;;;;5115109;28;20784;-69
2021/10/21 03:31:29;;;;;;;4.63;2.17;;;17.40;99.90;;;;;;5115296;28;20476;-69
2021/10/21 03:33:56;;;;;;;3.03;2.23;;;17.30;99.90;;;;;;5115230;28;20468;-69
2021/10/21 03:36:24;;;;;;;2.30;2.10;;;17.40;99.90;;;;;;5114349;28;20452;-69
2021/10/21 03:38:51;;;;;;;3.20;2.10;;;17.30;99.90;;;;;;5114693;28;20457;-69
2021/10/21 03:41:18;;;;;;;2.20;2.00;;;17.30;99.90;;;;;;5114815;28;20457;-69
2021/10/21 03:43:45;;;;;;;3.70;2.17;;;17.30;99.90;;;;;;5114448;28;20464;-69
2021/10/21 03:46:11;;;;;;;2.60;2.40;;;17.30;99.90;;;;;;5114857;28;20467;-70
2021/10/21 03:48:38;;;;;;;2.37;2.17;;;17.30;99.90;;;;;;5114717;28;20460;-70
2021/10/21 03:51:05;;;;;;;4.33;2.60;;;17.30;99.90;;;;;;5114344;28;20492;-69
2021/10/21 03:53:33;;;;;;;2.80;2.10;;;17.30;99.90;;;;;;5114642;28;20449;-69
2021/10/21 03:55:59;;;;;;;6.70;1.90;;;17.30;99.90;;;;;;5114560;28;20486;-69
2021/10/21 03:58:26;;;;;;;1.90;1.63;;;17.20;99.90;;;;;;5114638;28;20755;-69
2021/10/21 04:00:53;;;;;;;1.90;1.80;;;17.20;99.90;;;;;;5113970;28;20510;-69
2021/10/21 04:03:19;;;;;;;2.33;1.80;;;17.30;99.90;;;;;;5114442;28;20924;-69
2021/10/21 04:05:46;;;;;;;2.07;1.87;;;17.30;99.90;;;;;;5116369;28;20974;-69
2021/10/21 04:08:13;;;;;;;1.97;1.50;;;17.30;99.90;;;;;;5118223;28;20483;-69
2021/10/21 04:10:42;;;;;;;5.20;1.97;;;17.30;99.90;;;;;;5117587;28;21006;-69
2021/10/21 04:13:09;;;;;;;1.90;1.63;;;17.30;99.90;;;;;;5118424;28;20463;-69
2021/10/21 04:15:36;;;;;;;4.17;1.70;;;17.30;99.90;;;;;;5117932;27;20460;-69
2021/10/21 04:18:02;;;;;;;2.27;1.53;;;17.40;99.90;;;;;;5117881;28;20927;-69
2021/10/21 04:20:29;;;;;;;2.50;1.53;;;17.40;99.90;;;;;;5118376;28;20452;-69
2021/10/21 04:22:56;;;;;;;1.63;1.43;;;17.40;99.90;;;;;;5118176;28;20457;-69
2021/10/21 04:25:22;;;;;;;2.63;1.80;;;17.30;99.90;;;;;;5117820;28;20991;-69
2021/10/21 04:27:50;;;;;;;3.77;1.73;;;16.90;99.90;;;;;;5116330;28;20465;-69
2021/10/21 04:30:17;;;;;;;1.90;1.40;;;16.50;99.90;;;;;;5118085;27;20458;-70
2021/10/21 04:32:44;;;;;;;1.50;1.17;;;16.30;99.90;;;;;;5117864;28;20830;-70
2021/10/21 04:35:11;;;;;;;1.63;1.40;;;16.00;99.90;;;;;;5117974;28;20967;-70
2021/10/21 04:37:38;;;;;;;1.77;1.30;;;15.90;99.90;;;;;;5117972;28;20461;-70
2021/10/21 04:40:06;;;;;;;1.37;1.27;;;15.70;99.90;;;;;;5117433;28;20530;-69
2021/10/21 04:42:33;;;;;;;5.13;1.30;;;15.70;99.90;;;;;;5117692;28;20464;-68
2021/10/21 04:45:01;;;;;;;2.73;1.33;;;15.60;99.90;;;;;;5117357;28;20453;-70
2021/10/21 04:47:27;;;;;;;1.33;1.20;;;15.50;99.90;;;;;;5117366;28;20941;-71
2021/10/21 04:49:54;;;;;;;3.20;1.13;;;15.50;99.90;;;;;;5117574;28;20540;-70
2021/10/21 04:52:21;;;;;;;2.40;1.00;;;15.50;99.90;;;;;;5117267;28;20480;-70
2021/10/21 04:54:47;;;;;;;1.53;1.10;;;15.50;99.90;;;;;;5117355;28;20785;-70
2021/10/21 04:57:14;;;;;;;2.50;1.10;;;15.50;99.90;;;;;;5117660;28;20788;-70
2021/10/21 04:59:41;;;;;;;2.73;1.07;;;15.50;99.90;;;;;;5117705;28;20457;-70
2021/10/21 05:02:09;;;;;;;3.53;1.10;;;15.50;99.90;;;;;;5118074;28;20453;-71
2021/10/21 05:04:36;;;;;;;1.23;1.10;;;15.60;99.90;;;;;;5117649;28;20503;-69
2021/10/21 05:07:07;;;;;;;1.63;1.20;;;15.50;99.90;;;;;;5116576;28;20499;-69
2021/10/21 05:09:34;;;;;;;1.50;1.10;;;15.50;99.90;;;;;;5117053;28;20806;-69
2021/10/21 05:12:00;;;;;;;1.80;1.30;;;15.50;99.90;;;;;;5116891;27;20488;-69
2021/10/21 05:14:27;;;;;;;1.70;1.40;;;15.60;99.90;;;;;;5117187;28;20472;-69
2021/10/21 05:16:54;;;;;;;1.50;1.00;;;15.50;99.90;;;;;;5116957;28;20463;-70
2021/10/21 05:19:22;;;;;;;1.63;1.20;;;15.50;99.90;;;;;;5116972;28;20480;-70
2021/10/21 05:21:48;;;;;;;1.50;1.20;;;15.60;99.90;;;;;;5117063;28;20453;-70
2021/10/21 05:24:15;;;;;;;3.63;1.30;;;15.60;99.90;;;;;;5117041;28;20459;-71
2021/10/21 05:26:42;;;;;;;1.37;1.23;;;15.60;99.90;;;;;;5116875;28;20467;-69
2021/10/21 05:29:08;;;;;;;1.83;1.20;;;15.60;99.90;;;;;;5117446;28;20463;-70
2021/10/21 05:31:35;;;;;;;2.10;1.30;;;15.60;99.90;;;;;;5116757;28;20534;-71
2021/10/21 05:34:02;;;;;;;2.03;1.43;;;15.60;99.90;;;;;;5116369;28;20524;-71
2021/10/21 05:36:30;;;;;;;1.47;1.20;;;15.60;99.90;;;;;;5116566;28;20475;-70
2021/10/21 05:38:58;;;;;;;1.97;1.10;;;15.60;99.90;;;;;;5116499;27;20456;-69
2021/10/21 05:41:24;;;;;;;1.40;1.30;;;15.70;99.90;;;;;;5116387;28;20509;-69
2021/10/21 05:43:53;;;;;;;1.80;1.13;;;15.70;99.90;;;;;;5116273;28;20468;-69
2021/10/21 05:46:20;;;;;;;2.87;1.37;;;15.70;99.90;;;;;;5116658;27;20468;-70
2021/10/21 05:48:47;;;;;;;2.13;1.13;;;15.80;99.90;;;;;;5116140;28;20472;-71
2021/10/21 05:51:14;;;;;;;1.50;1.20;;;15.80;99.90;;;;;;5116276;28;20849;-70
2021/10/21 05:53:42;;;;;;;2.80;1.37;;;15.90;99.90;;;;;;5116144;28;20761;-70
2021/10/21 05:56:09;;;;;;;2.37;1.50;;;16.00;99.90;;;;;;5116683;28;20470;-70
2021/10/21 05:58:37;;;;;;;2.97;1.07;;;16.10;99.90;;;;;;5115849;28;20461;-70
2021/10/21 06:01:04;;;;;;;1.40;1.20;;;16.10;99.90;;;;;;5116229;28;20555;-70
2021/10/21 06:03:35;;;;;;;2.77;1.27;;;16.20;99.90;;;;;;5116381;28;20457;-71
2021/10/21 06:06:03;;;;;;;1.40;1.20;;;16.30;99.90;;;;;;5116057;28;20451;-70
2021/10/21 06:08:31;;;;;;;1.40;1.00;;;16.40;99.90;;;;;;5115362;28;20463;-70
2021/10/21 06:11:00;;;;;;;2.43;1.10;;;16.40;99.90;;;;;;5115379;27;20804;-70
2021/10/21 06:13:27;;;;;;;1.20;1.10;;;16.50;99.90;;;;;;5116018;28;20510;-70
2021/10/21 06:15:55;;;;;;;1.20;0.97;;;16.50;99.90;;;;;;5115431;28;20441;-70
2021/10/21 06:18:22;;;;;;;1.50;1.30;;;16.60;99.90;;;;;;5115744;28;20541;-70
2021/10/21 06:20:48;;;;;;;6.03;1.30;;;16.60;99.90;;;;;;5115715;28;20461;-70
2021/10/21 06:23:15;;;;;;;2.43;1.20;;;16.70;99.90;;;;;;5115470;28;20453;-70
2021/10/21 06:25:42;;;;;;;1.50;1.10;;;16.70;99.90;;;;;;5115532;28;20464;-71
2021/10/21 06:28:10;;;;;;;5.43;1.10;;;16.70;99.90;;;;;;5115017;28;20750;-70
2021/10/21 06:30:37;;;;;;;2.87;1.10;;;16.80;99.90;;;;;;5115143;28;20517;-70
2021/10/21 06:33:04;;;;;;;1.40;1.17;;;16.80;99.90;;;;;;5115150;28;20481;-70
2021/10/21 06:35:31;;;;;;;1.60;1.20;;;16.80;99.90;;;;;;5115402;28;20460;-71
2021/10/21 06:37:58;;;;;;;1.53;1.17;;;16.80;99.90;;;;;;5115910;28;20492;-70
2021/10/21 06:40:25;;;;;;;1.97;1.10;;;16.80;99.90;;;;;;5115081;28;20521;-71
2021/10/21 06:42:51;;;;;;;1.20;1.00;;;16.80;99.90;;;;;;5115413;28;20500;-70
2021/10/21 06:45:20;;;;;;;1.60;1.07;;;16.80;99.90;;;;;;5115542;28;20453;-70
2021/10/21 06:47:47;;;;;;;3.30;1.23;;;16.80;99.90;;;;;;5115026;28;20487;-70
2021/10/21 06:50:14;;;;;;;4.20;1.30;;;16.90;99.90;;;;;;5115061;28;20472;-70
2021/10/21 06:52:43;;;;;;;4.10;1.20;;;16.90;99.90;;;;;;5114985;28;20542;-71
2021/10/21 06:55:13;;;;;;;1.50;1.00;;;16.90;99.90;;;;;;5115389;28;20461;-70
2021/10/21 06:57:50;;;;;;;1.10;0.80;;;16.90;99.90;;;;;;5114836;28;20460;-70
2021/10/21 07:00:19;;;;;;;1.60;0.90;;;16.90;99.90;;;;;;5114974;28;20817;-70
2021/10/21 07:02:46;;;;;;;2.10;1.17;;;16.90;99.90;;;;;;5114570;28;20445;-70
2021/10/21 07:05:15;;;;;;;1.40;1.10;;;16.90;99.90;;;;;;5114805;28;20525;-71
2021/10/21 07:07:42;;;;;;;4.20;1.00;;;16.80;99.90;;;;;;5114333;28;20793;-71
2021/10/21 07:10:09;;;;;;;3.20;0.70;;;16.80;99.90;;;;;;5114875;28;20843;-71
2021/10/21 07:12:36;;;;;;;2.67;0.90;;;16.70;99.90;;;;;;5114624;28;20483;-71
2021/10/21 07:15:03;;;;;;;4.07;0.93;;;16.70;99.90;;;;;;5115054;28;20460;-71
2021/10/21 07:17:31;;;;;;;3.47;1.03;;;16.70;99.90;;;;;;5114678;28;20793;-71
2021/10/21 07:19:58;;;;;;;3.60;0.90;;;16.60;99.90;;;;;;5114813;28;20472;-72
2021/10/21 07:22:25;;;;;;;3.93;0.90;;;16.50;99.90;;;;;;5114559;28;20502;-72
2021/10/21 07:24:52;;;;;;;2.43;0.70;;;16.50;99.90;;;;;;5114659;28;20526;-70
2021/10/21 07:27:19;;;;;;;1.60;0.80;;;16.50;99.90;;;;;;5114562;28;20509;-70
2021/10/21 07:29:46;;;;;;;6.87;0.97;;;16.50;99.90;;;;;;5114247;28;20461;-71
2021/10/21 07:32:13;;;;;;;2.30;0.80;;;16.40;99.90;;;;;;5113925;28;20479;-72
2021/10/21 07:34:42;;;;;;;4.33;1.00;;;16.30;99.90;;;;;;5114476;28;20464;-73
2021/10/21 07:37:09;;;;;;;6.33;1.53;;;16.30;99.90;;;;;;5114863;28;20452;-72
2021/10/21 07:39:36;;;;;;;2.13;0.90;;;16.20;99.90;;;;;;5114745;28;20464;-70
2021/10/21 07:42:03;;;;;;;1.97;0.73;;;16.20;99.90;;;;;;5118387;28;20452;-73
2021/10/21 07:44:31;;;;;;;5.30;1.07;;;16.20;99.90;;;;;;5118226;28;20463;-72
2021/10/21 07:46:58;;;;;;;2.90;1.30;;;16.20;99.90;;;;;;5118020;28;20480;-71
2021/10/21 07:49:25;;;;;;;3.57;0.80;;;16.20;99.90;;;;;;5118713;27;20796;-72
2021/10/21 07:51:53;;;;;;;4.47;0.90;;;16.20;99.90;;;;;;5118254;28;20473;-72
2021/10/21 07:54:21;;;;;;;3.67;0.90;;;16.20;99.90;;;;;;5118279;28;20453;-71
2021/10/21 07:56:48;;;;;;;3.17;0.80;;;16.20;99.90;;;;;;5118129;28;20523;-71
2021/10/21 07:59:14;;;;;;;3.63;1.00;;;16.20;99.90;;;;;;5118196;28;20461;-71
2021/10/21 08:01:41;;;;;;;5.87;0.80;;;16.10;99.90;;;;;;5118777;28;20463;-73
2021/10/21 08:04:09;;;;;;;10.90;1.20;;;16.10;99.90;;;;;;5118698;28;20449;-72
2021/10/21 08:06:39;;;;;;;3.17;0.77;;;16.10;99.90;;;;;;5118329;28;20860;-71
2021/10/21 08:09:07;;;;;;;6.83;1.17;;;16.10;99.90;;;;;;5118238;28;20468;-70
2021/10/21 08:11:34;;;;;;;4.40;0.87;;;16.10;99.90;;;;;;5118157;28;20468;-72
2021/10/21 08:14:01;;;;;;;2.13;0.70;;;16.10;99.90;;;;;;5118160;27;20456;-71
2021/10/21 08:16:27;;;;;;;3.50;0.80;;;16.20;99.90;;;;;;5118228;28;20935;-70
2021/10/21 08:18:54;;;;;;;7.03;0.90;;;16.20;99.90;;;;;;5119508;28;20448;-72
2021/10/21 08:21:21;;;;;;;3.73;0.70;;;16.20;99.90;;;;;;5119474;27;20472;-70
2021/10/21 08:23:50;;;;;;;2.23;0.97;;;16.20;99.90;;;;;;5117953;28;20540;-71
2021/10/21 08:26:18;;;;;;;10.23;1.40;;;16.20;99.90;;;;;;5117842;28;20456;-71
2021/10/21 08:28:47;;;;;;;3.50;0.80;;;16.30;99.90;;;;;;5117733;28;20460;-72
2021/10/21 08:31:14;;;;;;;2.43;0.97;;;16.30;99.90;;;;;;5117836;28;20456;-71
2021/10/21 08:33:41;;;;;;;4.43;0.80;;;16.30;99.90;;;;;;5117426;28;20808;-71
2021/10/21 08:36:11;;;;;;;5.33;0.93;;;16.30;99.90;;;;;;5117794;28;20464;-70
2021/10/21 08:38:38;;;;;;;10.13;1.17;;;16.30;99.90;;;;;;5117864;27;20769;-71
2021/10/21 08:41:06;;;;;;;3.60;0.80;;;16.30;99.90;;;;;;5117204;28;20477;-71
2021/10/21 08:43:34;;;;;;;5.87;1.00;;;16.30;99.90;;;;;;5117457;28;20456;-71
2021/10/21 08:46:01;;;;;;;5.13;0.90;;;16.40;99.90;;;;;;5117915;28;20462;-71
2021/10/21 08:48:29;;;;;;;2.10;1.00;;;16.40;99.90;;;;;;5116708;28;20920;-71
2021/10/21 08:50:57;;;;;;;2.70;0.70;;;16.40;99.90;;;;;;5117178;28;20453;-72
2021/10/21 08:53:24;;;;;;;14.67;1.23;;;16.40;99.90;;;;;;5116940;28;20483;-70
2021/10/21 08:55:51;;;;;;;3.17;0.80;;;16.40;99.90;;;;;;5117437;28;20453;-70
2021/10/21 08:58:18;;;;;;;7.97;1.53;;;16.40;99.90;;;;;;5117342;28;20464;-70
2021/10/21 09:00:54;;;;;;;5.37;1.00;;;16.40;99.90;;;;;;5117381;28;20770;-70
2021/10/21 09:03:48;;;;;;;2.60;0.80;;;16.40;99.90;;;;;;5117073;28;20921;-70
2021/10/21 09:06:27;;;;;;;3.67;0.80;;;16.30;99.90;;;;;;5116765;28;20903;-71
2021/10/21 09:08:54;;;;;;;5.80;0.93;;;16.30;99.90;;;;;;5117561;27;20517;-70
2021/10/21 09:11:22;;;;;;;5.97;0.80;;;16.30;99.90;;;;;;5117151;28;20449;-71
2021/10/21 09:13:49;;;;;;;4.10;0.70;;;16.30;99.90;;;;;;5117333;28;20500;-71
2021/10/21 09:16:20;;;;;;;4.43;1.00;;;16.30;99.90;;;;;;5116764;28;20464;-71
2021/10/21 09:18:49;;;;;;;4.70;0.90;;;16.30;99.90;;;;;;5117086;28;20476;-72
2021/10/21 09:21:30;;;;;;;2.13;0.70;;;16.30;99.90;;;;;;5116757;28;20468;-71
2021/10/21 09:23:59;;;;;;;5.33;0.73;;;16.20;99.90;;;;;;5116678;28;20471;-72
2021/10/21 09:26:25;;;;;;;4.73;0.70;;;16.20;99.90;;;;;;5116684;28;20460;-70
2021/10/21 09:28:52;;;;;;;6.87;0.80;;;16.20;99.90;;;;;;5116747;28;20824;-70
2021/10/21 09:31:22;;;;;;;3.60;1.10;;;16.20;99.90;;;;;;5116021;28;20453;-71
2021/10/21 09:33:54;;;;;;;7.33;0.93;;;16.10;99.90;;;;;;5116234;28;20538;-70
2021/10/21 09:36:24;;;;;;;2.00;0.97;;;16.20;99.90;;;;;;5116494;28;20457;-71
2021/10/21 09:38:52;;;;;;;2.00;0.90;;;16.20;99.90;;;;;;5116546;28;20442;-70
2021/10/21 09:41:21;;;;;;;9.47;1.10;;;16.00;99.90;;;;;;5116690;28;20539;-73
2021/10/21 09:43:49;;;;;;;3.07;0.60;;;16.00;99.90;;;;;;5116358;28;20451;-70
2021/10/21 09:46:33;;;;;;;7.40;1.73;;;15.80;99.90;;;;;;5116486;28;20610;-73
2021/10/21 09:49:17;;;;;;;5.20;0.90;;;15.80;99.90;;;;;;5116140;28;20464;-71
2021/10/21 09:51:44;;;;;;;5.53;1.37;;;15.80;99.90;;;;;;5116626;28;20530;-72
2021/10/21 09:54:11;;;;;;;4.10;0.90;;;15.90;99.90;;;;;;5116300;28;20481;-71
2021/10/21 09:56:57;;;;;;;2.43;0.77;;;15.90;99.90;;;;;;5116582;28;20453;-70
2021/10/21 09:59:25;;;;;;;4.37;1.00;;;15.90;99.90;;;;;;5116344;28;20472;-71
2021/10/21 10:01:57;;;;;;;2.77;0.90;;;15.90;99.90;;;;;;5115675;28;20468;-71
2021/10/21 10:04:28;;;;;;;3.07;1.00;;;15.90;99.90;;;;;;5116165;28;20441;-72
2021/10/21 10:06:59;;;;;;;6.03;1.10;;;15.90;99.90;;;;;;5116218;28;20520;-70
2021/10/21 10:09:32;;;;;;;4.83;0.93;;;15.90;99.90;;;;;;5119132;28;20866;-71
2021/10/21 10:12:03;;;;;;;6.17;0.97;;;15.90;99.90;;;;;;5117054;28;20448;-71
2021/10/21 10:14:30;;;;;;;6.03;1.23;;;15.90;99.90;;;;;;5116468;28;20528;-71
2021/10/21 10:17:00;;;;;;;6.70;1.73;;;16.00;99.90;;;;;;5115711;28;20516;-71
2021/10/21 10:19:27;;;;;;;5.30;0.83;;;16.00;99.90;;;;;;5116591;28;20453;-70
2021/10/21 10:21:56;;;;;;;9.37;1.00;;;16.00;99.90;;;;;;5115966;28;20935;-70
2021/10/21 10:24:32;;;;;;;6.93;0.80;;;15.90;99.90;;;;;;5117600;28;20449;-70
2021/10/21 10:27:00;;;;;;;5.23;1.43;;;15.70;99.90;;;;;;5118970;28;20488;-70
2021/10/21 10:29:45;;;;;;;2.97;0.73;;;15.70;99.90;;;;;;5118060;28;20460;-70
2021/10/21 10:32:47;;;;;;;4.70;1.00;;;15.50;99.90;;;;;;5119281;28;20468;-69
2021/10/21 10:35:30;;;;;;;21.00;1.20;;;15.10;99.90;;;;;;5055800;28;20435;-71
2021/10/21 10:37:58;;;;;;;2.87;1.57;;;14.70;99.90;;;;;;5112429;28;20451;-71
2021/10/21 10:40:46;;;;;;;3.00;0.77;;;14.60;99.90;;;;;;5116427;28;20510;-71
2021/10/21 10:43:14;;;;;;;3.73;0.90;;;14.70;99.90;;;;;;5115825;28;20457;-71
2021/10/21 10:45:49;;;;;;;1.87;0.90;;;14.80;99.90;;;;;;5115052;28;20793;-71
2021/10/21 10:48:51;;;;;;;2.73;0.90;;;14.90;99.90;;;;;;5115165;28;20739;-72
2021/10/21 10:51:17;;;;;;;2.70;1.30;;;14.90;99.90;;;;;;5115330;28;20727;-71
2021/10/21 10:53:47;;;;;;;2.40;1.00;;;14.70;99.90;;;;;;5115106;28;20956;-72
2021/10/21 10:56:41;;;;;;;6.17;1.50;;;14.50;99.90;;;;;;5115460;28;20459;-73
2021/10/21 10:59:31;;;;;;;3.63;0.80;;;13.70;99.90;;;;;;5115429;28;20441;-72
2021/10/21 11:02:29;;;;;;;1.97;0.93;;;12.90;99.90;;;;;;5115081;28;20443;-73
2021/10/21 11:05:10;;;;;;;2.50;1.23;;;12.50;99.90;;;;;;5116754;28;20441;-74
2021/10/21 11:07:52;;;;;;;1.90;0.80;;;12.30;99.90;;;;;;5115270;28;20480;-74
2021/10/21 11:10:37;;;;;;;6.23;0.80;;;12.20;99.90;;;;;;5114948;28;20479;-71
2021/10/21 11:13:19;;;;;;;1.83;0.83;;;12.30;99.90;;;;;;5115004;28;20556;-72
2021/10/21 11:15:47;;;;;;;4.80;1.10;;;12.30;99.90;;;;;;5121848;27;20539;-71
2021/10/21 11:18:22;;;;;;;2.60;0.70;;;12.40;99.90;;;;;;5122891;27;20465;-73
2021/10/21 11:20:50;;;;;;;1.23;0.70;;;12.40;99.90;;;;;;5122908;27;20559;-72
2021/10/21 11:23:40;;;;;;;1.10;0.60;;;12.40;99.90;;;;;;5123733;27;20445;-73
2021/10/21 11:26:09;;;;;;;1.63;0.80;;;12.50;99.90;;;;;;5122232;27;20465;-71
2021/10/21 11:28:36;;;;;;;2.03;0.70;;;12.50;99.90;;;;;;5122226;27;20463;-72
2021/10/21 11:31:04;;;;;;;2.97;0.60;;;12.60;99.90;;;;;;5123977;27;20457;-71
2021/10/21 11:33:32;;;;;;;1.37;0.70;;;12.70;99.90;;;;;;5122132;27;20488;-72
2021/10/21 11:36:03;;;;;;;1.33;0.63;;;12.70;99.90;;;;;;5120958;27;20467;-72
2021/10/21 11:38:32;;;;;;;1.00;0.60;;;12.70;99.90;;;;;;5121391;27;20543;-71
2021/10/21 11:41:01;;;;;;;1.33;0.63;;;12.50;99.90;;;;;;5121851;27;20909;-71
2021/10/21 11:43:36;;;;;;;1.50;0.80;;;12.40;99.90;;;;;;5121551;28;20733;-71
2021/10/21 11:46:04;;;;;;;4.40;0.90;;;12.30;99.90;;;;;;5121261;27;20494;-71
2021/10/21 11:48:33;;;;;;;1.90;0.70;;;12.00;99.90;;;;;;5121596;27;20471;-72
2021/10/21 11:51:04;;;;;;;1.10;0.77;;;11.80;99.90;;;;;;5121884;27;20502;-71
2021/10/21 11:53:31;;;;;;;2.37;0.80;;;11.80;99.90;;;;;;5121761;27;20468;-71
2021/10/21 11:55:58;;;;;;;2.50;0.73;;;11.80;99.90;;;;;;5121730;27;20456;-71
2021/10/21 11:58:26;;;;;;;1.20;0.70;;;11.90;99.90;;;;;;5121540;27;20475;-71
2021/10/21 12:00:55;;;;;;;1.37;0.70;;;12.00;99.90;;;;;;5121729;27;20457;-72
2021/10/21 12:03:30;;;;;;;3.83;1.33;;;12.30;99.90;;;;;;5121221;27;20527;-72
2021/10/21 12:05:58;;;;;;;1.47;0.70;;;12.60;99.90;;;;;;5121515;27;20745;-70
2021/10/21 12:08:29;;;;;;;1.87;0.70;;;12.70;99.90;;;;;;5121187;27;20968;-72
2021/10/21 12:10:59;;;;;;;1.73;0.80;;;12.70;99.90;;;;;;5121283;27;20499;-72
2021/10/21 12:13:28;;;;;;;2.07;0.80;;;12.60;99.90;;;;;;5121463;27;20496;-72
2021/10/21 12:15:57;;;;;;;3.20;0.93;;;12.60;99.90;;;;;;5121245;27;20468;-72
2021/10/21 12:18:26;;;;;;;3.53;1.00;;;12.90;99.90;;;;;;5121546;27;20457;-73
2021/10/21 12:20:55;;;;;;;4.90;0.83;;;13.30;99.90;;;;;;5120917;27;20490;-71
2021/10/21 12:23:25;;;;;;;3.60;0.77;;;13.30;99.90;;;;;;5121165;27;20464;-73
2021/10/21 12:25:57;;;;;;;1.23;0.80;;;13.30;99.90;;;;;;5118570;27;20466;-71
2021/10/21 12:28:37;;;;;;;1.97;0.80;;;13.20;99.90;;;;;;5117751;28;20449;-72
2021/10/21 12:31:16;;;;;;;1.70;0.80;;;13.10;99.90;;;;;;5117928;28;20452;-72
2021/10/21 12:33:54;;;;;;;7.23;1.10;;;13.00;99.90;;;;;;5117238;28;20465;-71
2021/10/21 12:36:22;;;;;;;8.77;1.10;;;12.90;99.90;;;;;;5117273;27;20990;-72
2021/10/21 12:38:52;;;;;;;5.20;2.80;;;12.90;99.90;;;;;;5117512;28;20923;-72
2021/10/21 12:41:21;;;;;;;7.00;1.30;;;12.90;99.90;;;;;;5117264;28;20467;-71
2021/10/21 12:44:01;;;;;;;1.50;0.80;;;12.90;99.90;;;;;;5117275;27;20458;-71
2021/10/21 12:46:29;;;;;;;4.83;1.10;;;12.90;99.90;;;;;;5116888;28;20459;-72
2021/10/21 12:49:09;;;;;;;2.20;1.03;;;13.00;99.90;;;;;;5117100;28;20518;-70
2021/10/21 12:51:36;;;;;;;4.83;1.10;;;13.10;99.90;;;;;;5117315;28;20544;-70
2021/10/21 12:54:03;;;;;;;3.13;1.10;;;13.10;99.90;;;;;;5117209;28;20484;-71
2021/10/21 12:56:31;;;;;;;4.27;1.00;;;13.20;99.90;;;;;;5117555;28;20783;-71
2021/10/21 12:59:02;;;;;;;2.10;0.90;;;13.20;99.90;;;;;;5117238;28;20452;-70